createdAt,value
2022-07-26T00:01:49.849Z,18.30
2022-07-26T00:04:37.012Z,18.30
2022-07-26T00:07:25.671Z,18.30
2022-07-26T00:10:13.688Z,18.20
2022-07-26T00:13:00.727Z,18.20
2022-07-26T00:15:49.308Z,18.20
2022-07-26T00:18:36.621Z,18.10
2022-07-26T00:21:23.554Z,18.10
2022-07-26T00:24:11.861Z,18.10
2022-07-26T00:26:58.665Z,18.20
2022-07-26T00:29:45.258Z,18.20
2022-07-26T00:32:32.228Z,18.20
2022-07-26T00:35:18.945Z,18.20
2022-07-26T00:38:06.319Z,18.30
2022-07-26T00:40:54.879Z,18.30
2022-07-26T00:43:55.677Z,18.30
2022-07-26T00:46:43.649Z,18.30
2022-07-26T00:49:30.873Z,18.30
2022-07-26T00:52:18.139Z,18.30
2022-07-26T00:55:07.607Z,18.20
2022-07-26T00:57:56.006Z,18.20
2022-07-26T01:00:43.122Z,18.20
2022-07-26T01:03:36.526Z,18.10
2022-07-26T01:06:27.527Z,18.20
2022-07-26T01:09:15.407Z,18.20
2022-07-26T01:12:02.363Z,18.20
2022-07-26T01:14:50.453Z,18.20
2022-07-26T01:17:38.221Z,18.30
2022-07-26T01:20:25.370Z,18.30
2022-07-26T01:23:14.446Z,18.30
2022-07-26T01:26:01.184Z,18.30
2022-07-26T01:28:49.820Z,18.30
2022-07-26T01:31:37.190Z,18.30
2022-07-26T01:34:24.382Z,18.30
2022-07-26T01:37:11.791Z,18.30
2022-07-26T01:40:00.308Z,18.30
2022-07-26T01:42:47.204Z,18.30
2022-07-26T01:45:34.062Z,18.30
2022-07-26T01:48:20.955Z,18.30
2022-07-26T01:51:08.318Z,18.30
2022-07-26T01:53:54.839Z,18.30
2022-07-26T01:56:43.456Z,18.30
2022-07-26T01:59:30.554Z,18.30
2022-07-26T02:02:17.991Z,18.20
2022-07-26T02:05:05.379Z,18.20
2022-07-26T02:07:52.405Z,18.20
2022-07-26T02:10:56.669Z,18.20
2022-07-26T02:13:48.794Z,18.10
2022-07-26T02:16:38.157Z,18.10
2022-07-26T02:19:27.472Z,18.10
2022-07-26T02:22:14.483Z,18.00
2022-07-26T02:25:05.200Z,18.00
2022-07-26T02:27:52.602Z,17.90
2022-07-26T02:30:42.054Z,17.80
2022-07-26T02:33:29.282Z,17.80
2022-07-26T02:36:16.514Z,17.80
2022-07-26T02:39:03.749Z,17.70
2022-07-26T02:41:51.678Z,17.70
2022-07-26T02:44:38.728Z,17.70
2022-07-26T02:47:27.211Z,17.70
2022-07-26T02:50:16.924Z,17.60
2022-07-26T02:53:04.324Z,17.50
2022-07-26T02:55:51.758Z,17.50
2022-07-26T02:58:39.367Z,17.50
2022-07-26T03:01:26.575Z,17.50
2022-07-26T03:04:14.940Z,17.50
2022-07-26T03:07:01.638Z,17.50
2022-07-26T03:09:49.184Z,17.30
2022-07-26T03:12:36.379Z,17.30
2022-07-26T03:15:23.323Z,17.20
2022-07-26T03:18:10.514Z,17.30
2022-07-26T03:20:58.760Z,17.30
2022-07-26T03:23:45.488Z,17.30
2022-07-26T03:26:32.501Z,17.30
2022-07-26T03:29:19.594Z,17.30
2022-07-26T03:32:07.721Z,17.30
2022-07-26T03:34:54.527Z,17.30
2022-07-26T03:37:45.819Z,17.30
2022-07-26T03:40:33.194Z,17.30
2022-07-26T03:43:23.218Z,17.30
2022-07-26T03:46:10.708Z,17.30
2022-07-26T03:48:58.251Z,17.30
2022-07-26T03:51:45.338Z,17.20
2022-07-26T03:54:33.983Z,17.20
2022-07-26T03:57:20.384Z,17.20
2022-07-26T04:00:08.722Z,17.20
2022-07-26T04:02:55.666Z,17.20
2022-07-26T04:05:48.959Z,17.30
2022-07-26T04:08:36.043Z,17.20
2022-07-26T04:11:26.547Z,17.30
2022-07-26T04:14:16.060Z,17.20
2022-07-26T04:17:03.294Z,17.20
2022-07-26T04:19:50.097Z,17.20
2022-07-26T04:22:37.390Z,17.20
2022-07-26T04:25:24.523Z,17.30
2022-07-26T04:28:12.866Z,17.30
2022-07-26T04:31:01.029Z,17.30
2022-07-26T04:33:47.985Z,17.30
2022-07-26T04:36:35.322Z,17.30
2022-07-26T04:39:24.673Z,17.20
2022-07-26T04:42:11.945Z,17.30
2022-07-26T04:45:04.398Z,17.30
2022-07-26T04:47:54.450Z,17.40
2022-07-26T04:50:41.577Z,17.40
2022-07-26T04:53:28.564Z,17.40
2022-07-26T04:56:15.563Z,17.30
2022-07-26T04:59:02.291Z,17.30
2022-07-26T05:01:50.468Z,17.30
2022-07-26T05:04:37.588Z,17.30
2022-07-26T05:07:24.658Z,17.30
2022-07-26T05:10:12.952Z,17.30
2022-07-26T05:13:00.474Z,17.40
2022-07-26T05:15:47.063Z,17.30
2022-07-26T05:18:48.765Z,17.30
2022-07-26T05:21:36.560Z,17.40
2022-07-26T05:24:23.674Z,17.40
2022-07-26T05:27:10.815Z,17.40
2022-07-26T05:29:57.770Z,17.50
2022-07-26T05:32:44.423Z,17.60
2022-07-26T05:35:32.734Z,17.60
2022-07-26T05:38:20.789Z,17.70
2022-07-26T05:41:08.433Z,17.70
2022-07-26T05:43:56.537Z,17.60
2022-07-26T05:46:43.674Z,17.50
2022-07-26T05:49:40.090Z,17.60
2022-07-26T05:52:29.424Z,17.70
2022-07-26T05:55:17.825Z,17.80
2022-07-26T05:58:04.779Z,17.80
2022-07-26T06:00:51.871Z,17.80
2022-07-26T06:03:39.038Z,17.60
2022-07-26T06:06:26.468Z,17.70
2022-07-26T06:09:14.617Z,17.70
2022-07-26T06:12:02.012Z,17.80
2022-07-26T06:14:49.235Z,18.00
2022-07-26T06:17:36.054Z,18.20
2022-07-26T06:20:23.325Z,18.30
2022-07-26T06:23:10.846Z,18.40
2022-07-26T06:25:59.049Z,18.60
2022-07-26T06:28:46.362Z,18.80
2022-07-26T06:31:33.828Z,19.00
2022-07-26T06:34:20.885Z,19.10
2022-07-26T06:37:07.718Z,19.50
2022-07-26T06:39:54.562Z,19.90
2022-07-26T06:42:43.419Z,20.20
2022-07-26T06:45:31.162Z,20.20
2022-07-26T06:48:19.753Z,20.10
2022-07-26T06:51:10.115Z,19.80
2022-07-26T06:54:00.906Z,19.50
2022-07-26T06:56:48.255Z,19.70
2022-07-26T06:59:36.369Z,20.40
2022-07-26T07:02:23.374Z,20.90
2022-07-26T07:05:13.004Z,21.40
2022-07-26T07:08:00.129Z,21.80
2022-07-26T07:10:46.970Z,22.30
2022-07-26T07:13:36.088Z,22.50
2022-07-26T07:16:25.400Z,22.50
2022-07-26T07:19:12.629Z,22.30
2022-07-26T07:21:59.617Z,22.70
2022-07-26T07:24:46.744Z,23.60
2022-07-26T07:27:35.709Z,24.10
2022-07-26T07:30:23.331Z,24.80
2022-07-26T07:33:22.325Z,25.70
2022-07-26T07:36:10.593Z,26.40
2022-07-26T07:38:57.690Z,26.30
2022-07-26T07:41:45.259Z,25.40
2022-07-26T07:44:32.665Z,24.10
2022-07-26T07:47:19.841Z,23.30
2022-07-26T07:50:09.607Z,22.60
2022-07-26T07:52:57.987Z,21.90
2022-07-26T07:55:47.107Z,22.60
2022-07-26T07:58:34.507Z,23.20
2022-07-26T08:01:21.837Z,23.70
2022-07-26T08:04:09.260Z,24.20
2022-07-26T08:06:57.833Z,25.10
2022-07-26T08:09:44.774Z,25.80
2022-07-26T08:12:33.072Z,25.20
2022-07-26T08:15:21.378Z,25.60
2022-07-26T08:18:08.741Z,26.00
2022-07-26T08:20:55.921Z,26.80
2022-07-26T08:23:44.437Z,27.10
2022-07-26T08:26:31.299Z,27.00
2022-07-26T08:29:18.688Z,27.50
2022-07-26T08:32:06.941Z,27.50
2022-07-26T08:34:53.980Z,28.20
2022-07-26T08:38:00.872Z,28.60
2022-07-26T08:40:49.366Z,28.40
2022-07-26T08:43:50.617Z,28.60
2022-07-26T08:46:41.286Z,28.40
2022-07-26T08:49:29.318Z,28.10
2022-07-26T08:52:16.896Z,28.00
2022-07-26T08:55:03.504Z,28.40
2022-07-26T08:57:51.908Z,28.30
2022-07-26T09:00:38.953Z,28.50
2022-07-26T09:03:27.361Z,28.80
2022-07-26T09:06:18.958Z,28.10
2022-07-26T09:09:12.575Z,27.20
2022-07-26T09:11:59.954Z,27.70
2022-07-26T09:14:48.387Z,27.70
2022-07-26T09:17:42.845Z,27.50
2022-07-26T09:20:31.944Z,26.60
2022-07-26T09:23:19.213Z,26.60
2022-07-26T09:26:06.686Z,26.80
2022-07-26T09:29:06.681Z,27.50
2022-07-26T09:32:11.602Z,27.90
2022-07-26T09:35:36.965Z,28.10
2022-07-26T09:38:19.244Z,27.60
2022-07-26T09:41:19.841Z,27.90
2022-07-26T09:44:09.510Z,28.30
2022-07-26T09:47:00.161Z,28.70
2022-07-26T09:49:47.229Z,28.90
2022-07-26T09:52:34.391Z,28.60
2022-07-26T09:55:21.243Z,28.60
2022-07-26T09:58:08.804Z,28.90
2022-07-26T10:01:02.009Z,29.50
2022-07-26T10:03:50.593Z,29.30
2022-07-26T10:06:37.642Z,28.70
2022-07-26T10:09:25.452Z,28.50
2022-07-26T10:12:16.956Z,28.90
2022-07-26T10:15:04.648Z,29.60
2022-07-26T10:17:51.576Z,29.40
2022-07-26T10:20:52.113Z,29.10
2022-07-26T10:23:44.852Z,29.50
2022-07-26T10:26:40.736Z,29.80
2022-07-26T10:29:30.390Z,29.30
2022-07-26T10:32:21.387Z,28.80
2022-07-26T10:35:32.798Z,29.30
2022-07-26T10:38:29.448Z,29.70
2022-07-26T10:41:32.483Z,30.00
2022-07-26T10:44:28.052Z,29.80
2022-07-26T10:47:18.631Z,29.90
2022-07-26T10:50:06.994Z,29.80
2022-07-26T10:52:59.992Z,29.70
2022-07-26T10:55:50.225Z,29.40
2022-07-26T10:58:44.101Z,29.30
2022-07-26T11:01:37.742Z,29.80
2022-07-26T11:04:26.090Z,29.40
2022-07-26T11:07:13.999Z,29.90
2022-07-26T11:10:01.859Z,29.30
2022-07-26T11:12:50.207Z,30.20
2022-07-26T11:15:38.852Z,30.90
2022-07-26T11:18:30.778Z,29.70
2022-07-26T11:21:19.264Z,29.10
2022-07-26T11:24:07.997Z,28.60
2022-07-26T11:26:55.562Z,27.80
2022-07-26T11:29:45.498Z,28.10
2022-07-26T11:32:36.393Z,28.00
2022-07-26T11:35:29.752Z,29.20
2022-07-26T11:38:17.298Z,29.10
2022-07-26T11:41:04.659Z,27.90
2022-07-26T11:43:53.598Z,28.30
2022-07-26T11:46:47.566Z,28.90
2022-07-26T11:49:52.304Z,29.00
2022-07-26T11:52:42.799Z,29.10
2022-07-26T11:55:31.737Z,29.50
2022-07-26T11:58:18.744Z,29.60
2022-07-26T12:01:06.312Z,29.70
2022-07-26T12:03:55.963Z,29.10
2022-07-26T12:06:42.932Z,28.80
2022-07-26T12:09:32.097Z,29.20
2022-07-26T12:12:24.246Z,29.60
2022-07-26T12:15:13.390Z,29.80
2022-07-26T12:18:00.815Z,29.70
2022-07-26T12:21:04.556Z,28.10
2022-07-26T12:23:53.156Z,27.40
2022-07-26T12:26:40.715Z,27.00
2022-07-26T12:29:34.179Z,26.50
2022-07-26T12:32:22.684Z,27.20
2022-07-26T12:35:11.805Z,28.00
2022-07-26T12:38:00.193Z,27.90
2022-07-26T12:40:47.524Z,27.50
2022-07-26T12:43:40.642Z,27.40
2022-07-26T12:46:27.983Z,27.20
2022-07-26T12:49:15.270Z,27.50
2022-07-26T12:52:02.364Z,28.20
2022-07-26T12:54:52.756Z,27.70
2022-07-26T12:57:41.383Z,28.20
2022-07-26T13:00:33.629Z,29.10
2022-07-26T13:03:20.772Z,28.90
2022-07-26T13:06:08.493Z,28.90
2022-07-26T13:08:56.565Z,28.20
2022-07-26T13:11:45.516Z,27.60
2022-07-26T13:14:34.257Z,27.50
2022-07-26T13:17:21.496Z,27.60
2022-07-26T13:20:09.363Z,28.10
2022-07-26T13:22:56.304Z,27.20
2022-07-26T13:25:43.483Z,26.80
2022-07-26T13:28:31.724Z,26.70
2022-07-26T13:31:19.437Z,27.50
2022-07-26T13:34:06.702Z,28.00
2022-07-26T13:36:54.559Z,27.60
2022-07-26T13:39:41.523Z,27.60
2022-07-26T13:42:29.292Z,27.30
2022-07-26T13:45:17.657Z,26.80
2022-07-26T13:48:04.871Z,27.50
2022-07-26T13:50:52.036Z,27.50
2022-07-26T13:53:52.136Z,27.50
2022-07-26T13:56:42.425Z,27.50
2022-07-26T13:59:29.976Z,28.10
2022-07-26T14:02:18.645Z,27.60
2022-07-26T14:05:06.743Z,27.00
2022-07-26T14:07:54.511Z,26.60
2022-07-26T14:10:41.847Z,25.90
2022-07-26T14:13:28.507Z,26.00
2022-07-26T14:16:15.409Z,26.10
2022-07-26T14:19:04.382Z,26.30
2022-07-26T14:21:59.268Z,26.40
2022-07-26T14:24:47.328Z,26.80
2022-07-26T14:27:34.011Z,27.30
2022-07-26T14:30:23.728Z,27.60
2022-07-26T14:33:11.774Z,27.00
2022-07-26T14:36:00.123Z,26.50
2022-07-26T14:38:47.797Z,26.10
2022-07-26T14:41:34.847Z,26.10
2022-07-26T14:44:22.211Z,26.30
2022-07-26T14:47:11.005Z,26.70
2022-07-26T14:50:00.574Z,26.60
2022-07-26T14:52:53.339Z,26.90
2022-07-26T14:55:40.484Z,26.90
2022-07-26T14:58:27.724Z,27.10
2022-07-26T15:01:17.088Z,27.10
2022-07-26T15:04:05.829Z,27.50
2022-07-26T15:06:53.157Z,27.40
2022-07-26T15:09:41.563Z,27.00
2022-07-26T15:12:28.865Z,26.00
2022-07-26T15:15:16.450Z,26.10
2022-07-26T15:18:03.598Z,26.40
2022-07-26T15:20:51.127Z,26.80
2022-07-26T15:23:39.980Z,26.90
2022-07-26T15:26:28.658Z,27.40
2022-07-26T15:29:15.544Z,27.40
2022-07-26T15:32:03.176Z,27.40
2022-07-26T15:34:50.456Z,26.50
2022-07-26T15:37:38.099Z,26.40
2022-07-26T15:40:25.401Z,26.50
2022-07-26T15:43:22.253Z,26.10
2022-07-26T15:46:11.156Z,25.70
2022-07-26T15:48:58.061Z,26.00
2022-07-26T15:51:45.323Z,25.80
2022-07-26T15:54:32.752Z,25.40
2022-07-26T15:57:26.706Z,25.40
2022-07-26T16:00:17.628Z,25.90
2022-07-26T16:03:04.620Z,26.30
2022-07-26T16:05:54.804Z,26.30
2022-07-26T16:08:59.017Z,26.20
2022-07-26T16:11:49.455Z,25.50
2022-07-26T16:14:36.836Z,25.70
2022-07-26T16:17:25.538Z,25.70
2022-07-26T16:20:13.329Z,25.40
2022-07-26T16:23:00.568Z,25.20
2022-07-26T16:25:47.876Z,25.40
2022-07-26T16:28:35.468Z,25.50
2022-07-26T16:31:22.824Z,25.30
2022-07-26T16:34:11.826Z,25.50
2022-07-26T16:36:58.603Z,25.60
2022-07-26T16:39:46.418Z,25.70
2022-07-26T16:42:33.468Z,25.60
2022-07-26T16:45:20.833Z,25.50
2022-07-26T16:48:08.540Z,25.80
2022-07-26T16:50:57.239Z,25.40
2022-07-26T16:53:45.317Z,25.60
2022-07-26T16:56:32.078Z,25.60
2022-07-26T16:59:19.379Z,25.80
2022-07-26T17:02:06.345Z,25.60
2022-07-26T17:04:55.881Z,25.60
2022-07-26T17:07:44.640Z,25.20
2022-07-26T17:10:31.706Z,24.90
2022-07-26T17:13:18.965Z,24.80
2022-07-26T17:16:06.272Z,24.40
2022-07-26T17:18:53.911Z,24.20
2022-07-26T17:21:41.120Z,24.00
2022-07-26T17:24:29.678Z,23.90
2022-07-26T17:27:17.428Z,23.70
2022-07-26T17:30:07.114Z,23.50
2022-07-26T17:32:54.253Z,23.50
2022-07-26T17:35:41.252Z,23.30
2022-07-26T17:38:28.631Z,23.20
2022-07-26T17:41:18.512Z,23.10
2022-07-26T17:44:07.067Z,22.90
2022-07-26T17:46:58.466Z,22.90
2022-07-26T17:49:45.508Z,22.80
2022-07-26T17:52:34.371Z,22.70
2022-07-26T17:55:22.336Z,22.60
2022-07-26T17:58:10.819Z,22.40
2022-07-26T18:00:58.048Z,22.40
2022-07-26T18:03:45.348Z,22.20
2022-07-26T18:06:32.329Z,22.10
2022-07-26T18:09:19.434Z,22.00
2022-07-26T18:12:07.594Z,21.80
2022-07-26T18:14:55.955Z,21.60
2022-07-26T18:17:43.815Z,21.40
2022-07-26T18:20:31.401Z,21.20
2022-07-26T18:23:18.577Z,21.20
2022-07-26T18:26:05.865Z,21.00
2022-07-26T18:28:53.394Z,20.90
2022-07-26T18:31:42.525Z,20.70
2022-07-26T18:34:29.903Z,20.60
2022-07-26T18:37:16.658Z,20.40
2022-07-26T18:40:04.768Z,20.30
2022-07-26T18:42:52.877Z,20.20
2022-07-26T18:45:40.227Z,20.00
2022-07-26T18:48:28.545Z,20.00
2022-07-26T18:51:15.543Z,19.90
2022-07-26T18:54:02.717Z,19.80
2022-07-26T18:56:49.985Z,19.70
2022-07-26T18:59:37.866Z,19.60
2022-07-26T19:02:26.945Z,19.40
2022-07-26T19:05:16.754Z,19.20
2022-07-26T19:08:04.465Z,19.10
2022-07-26T19:10:51.820Z,19.00
2022-07-26T19:13:40.285Z,18.80
2022-07-26T19:16:28.295Z,18.70
2022-07-26T19:19:15.938Z,18.40
2022-07-26T19:22:05.218Z,18.40
2022-07-26T19:24:52.500Z,18.30
2022-07-26T19:27:40.055Z,18.40
2022-07-26T19:30:27.343Z,18.30
2022-07-26T19:33:14.338Z,18.30
2022-07-26T19:36:01.732Z,18.40
2022-07-26T19:38:49.993Z,18.40
2022-07-26T19:41:37.282Z,18.30
2022-07-26T19:44:24.249Z,18.30
2022-07-26T19:47:11.281Z,18.20
2022-07-26T19:49:58.854Z,18.10
2022-07-26T19:52:45.888Z,18.10
2022-07-26T19:55:34.598Z,18.00
2022-07-26T19:58:22.148Z,17.90
2022-07-26T20:01:14.083Z,17.90
2022-07-26T20:04:02.366Z,17.80
2022-07-26T20:06:49.857Z,17.80
2022-07-26T20:09:36.880Z,17.80
2022-07-26T20:12:25.845Z,17.60
2022-07-26T20:15:14.381Z,17.50
2022-07-26T20:18:01.428Z,17.50
2022-07-26T20:20:48.456Z,17.50
2022-07-26T20:23:36.087Z,17.50
2022-07-26T20:26:25.183Z,17.40
2022-07-26T20:29:14.277Z,17.40
2022-07-26T20:32:01.792Z,17.20
2022-07-26T20:34:48.788Z,17.10
2022-07-26T20:37:36.027Z,17.10
2022-07-26T20:40:23.023Z,17.10
2022-07-26T20:43:11.447Z,17.00
2022-07-26T20:46:02.164Z,17.00
2022-07-26T20:48:49.274Z,17.00
2022-07-26T20:51:36.240Z,17.00
2022-07-26T20:54:23.417Z,17.00
2022-07-26T20:57:10.404Z,16.90
2022-07-26T20:59:57.643Z,16.90
2022-07-26T21:02:46.457Z,16.90
2022-07-26T21:05:33.339Z,16.90
2022-07-26T21:08:20.485Z,16.80
2022-07-26T21:11:07.207Z,16.80
2022-07-26T21:13:54.137Z,16.80
2022-07-26T21:16:41.348Z,16.80
2022-07-26T21:19:29.744Z,16.70
2022-07-26T21:22:16.788Z,16.80
2022-07-26T21:25:03.379Z,16.70
2022-07-26T21:27:50.482Z,16.60
2022-07-26T21:30:37.593Z,16.60
2022-07-26T21:33:24.782Z,16.50
2022-07-26T21:36:15.321Z,16.40
2022-07-26T21:39:02.256Z,16.40
2022-07-26T21:41:49.794Z,16.40
2022-07-26T21:44:36.749Z,16.30
2022-07-26T21:47:23.815Z,16.20
2022-07-26T21:50:12.211Z,16.20
2022-07-26T21:53:01.285Z,16.10
2022-07-26T21:55:47.894Z,16.00
2022-07-26T21:58:36.788Z,16.00
2022-07-26T22:01:24.176Z,15.90
2022-07-26T22:04:11.382Z,15.90
2022-07-26T22:06:58.415Z,15.80
2022-07-26T22:09:46.625Z,15.80
2022-07-26T22:12:33.763Z,15.80
2022-07-26T22:15:21.158Z,15.80
2022-07-26T22:18:09.794Z,15.80
2022-07-26T22:20:57.425Z,15.70
2022-07-26T22:23:45.724Z,15.60
2022-07-26T22:26:34.034Z,15.60
2022-07-26T22:29:20.811Z,15.50
2022-07-26T22:32:07.836Z,15.40
2022-07-26T22:34:54.978Z,15.30
2022-07-26T22:37:41.860Z,15.30
2022-07-26T22:40:28.699Z,15.20
2022-07-26T22:43:17.401Z,15.20
2022-07-26T22:46:05.960Z,15.10
2022-07-26T22:48:52.862Z,15.10
2022-07-26T22:51:40.070Z,15.00
2022-07-26T22:54:27.462Z,15.10
2022-07-26T22:57:15.569Z,15.10
2022-07-26T23:00:04.342Z,15.10
2022-07-26T23:02:51.077Z,15.10
2022-07-26T23:05:45.411Z,15.20
2022-07-26T23:08:48.727Z,15.20
2022-07-26T23:11:35.624Z,15.20
2022-07-26T23:14:24.083Z,15.30
2022-07-26T23:17:12.463Z,15.30
2022-07-26T23:19:59.533Z,15.20
2022-07-26T23:22:47.009Z,15.30
2022-07-26T23:25:34.259Z,15.30
2022-07-26T23:28:24.771Z,15.30
2022-07-26T23:31:25.935Z,15.30
2022-07-26T23:34:14.198Z,15.30
2022-07-26T23:37:01.258Z,15.40
2022-07-26T23:39:48.010Z,15.40
2022-07-26T23:42:34.850Z,15.40
2022-07-26T23:45:21.744Z,15.40
2022-07-26T23:48:09.034Z,15.40
2022-07-26T23:50:57.216Z,15.30
2022-07-26T23:53:44.418Z,15.30
2022-07-26T23:56:31.675Z,15.30
2022-07-26T23:59:19.108Z,15.20
